sensor_id;sensor_type;location;lat;lon;timestamp;pressure;altitude;pressure_sealevel;temperature
24278;BMP280;12394;42.692;23.314;2023-08-24T00:00:14;95134.16;;;23.89
24278;BMP280;12394;42.692;23.314;2023-08-24T00:02:39;95138.03;;;23.88
24278;BMP280;12394;42.692;23.314;2023-08-24T00:05:05;95136.78;;;23.84
24278;BMP280;12394;42.692;23.314;2023-08-24T00:07:30;95138.03;;;23.88
24278;BMP280;12394;42.692;23.314;2023-08-24T00:09:57;95139.97;;;23.88
24278;BMP280;12394;42.692;23.314;2023-08-24T00:12:23;95138.69;;;23.83
24278;BMP280;12394;42.692;23.314;2023-08-24T00:14:49;95136.56;;;23.87
24278;BMP280;12394;42.692;23.314;2023-08-24T00:17:14;95130.94;;;23.85
24278;BMP280;12394;42.692;23.314;2023-08-24T00:19:40;95113.59;;;23.75
24278;BMP280;12394;42.692;23.314;2023-08-24T00:22:05;95130.16;;;23.79
24278;BMP280;12394;42.692;23.314;2023-08-24T00:24:31;95117.47;;;23.74
24278;BMP280;12394;42.692;23.314;2023-08-24T00:26:56;95117.56;;;23.85
24278;BMP280;12394;42.692;23.314;2023-08-24T00:29:22;95109.38;;;23.89
24278;BMP280;12394;42.692;23.314;2023-08-24T00:31:47;95125.06;;;24.02
24278;BMP280;12394;42.692;23.314;2023-08-24T00:34:13;95120.91;;;24.01
24278;BMP280;12394;42.692;23.314;2023-08-24T00:36:39;95126.06;;;23.84
24278;BMP280;12394;42.692;23.314;2023-08-24T00:39:05;95136.94;;;23.80
24278;BMP280;12394;42.692;23.314;2023-08-24T00:41:31;95113.44;;;23.64
24278;BMP280;12394;42.692;23.314;2023-08-24T00:43:57;95138.00;;;23.68
24278;BMP280;12394;42.692;23.314;2023-08-24T00:46:23;95119.34;;;23.54
24278;BMP280;12394;42.692;23.314;2023-08-24T00:48:52;95133.72;;;23.56
24278;BMP280;12394;42.692;23.314;2023-08-24T00:51:18;95127.13;;;23.52
24278;BMP280;12394;42.692;23.314;2023-08-24T00:53:43;95133.66;;;23.51
24278;BMP280;12394;42.692;23.314;2023-08-24T00:56:10;95134.59;;;23.47
24278;BMP280;12394;42.692;23.314;2023-08-24T00:58:35;95135.22;;;23.42
24278;BMP280;12394;42.692;23.314;2023-08-24T01:01:01;95129.78;;;23.37
24278;BMP280;12394;42.692;23.314;2023-08-24T01:03:26;95136.88;;;23.40
24278;BMP280;12394;42.692;23.314;2023-08-24T01:05:52;95138.72;;;23.34
24278;BMP280;12394;42.692;23.314;2023-08-24T01:08:18;95138.66;;;23.28
24278;BMP280;12394;42.692;23.314;2023-08-24T01:10:52;95129.56;;;23.20
24278;BMP280;12394;42.692;23.314;2023-08-24T01:13:38;95134.69;;;23.24
24278;BMP280;12394;42.692;23.314;2023-08-24T01:16:14;95121.06;;;23.22
24278;BMP280;12394;42.692;23.314;2023-08-24T01:18:42;95128.53;;;23.18
24278;BMP280;12394;42.692;23.314;2023-08-24T01:21:08;95102.34;;;23.01
24278;BMP280;12394;42.692;23.314;2023-08-24T01:24:01;95114.84;;;23.10
24278;BMP280;12394;42.692;23.314;2023-08-24T01:26:29;95129.13;;;23.07
24278;BMP280;12394;42.692;23.314;2023-08-24T01:28:56;95136.38;;;23.07
24278;BMP280;12394;42.692;23.314;2023-08-24T01:31:22;95134.91;;;23.05
24278;BMP280;12394;42.692;23.314;2023-08-24T01:33:47;95134.91;;;23.05
24278;BMP280;12394;42.692;23.314;2023-08-24T01:36:13;95134.53;;;23.13
24278;BMP280;12394;42.692;23.314;2023-08-24T01:38:41;95132.78;;;23.10
24278;BMP280;12394;42.692;23.314;2023-08-24T01:41:21;95131.03;;;23.07
24278;BMP280;12394;42.692;23.314;2023-08-24T01:43:52;95134.00;;;22.94
24278;BMP280;12394;42.692;23.314;2023-08-24T01:46:19;95143.94;;;22.93
24278;BMP280;12394;42.692;23.314;2023-08-24T01:48:47;95131.34;;;22.79
24278;BMP280;12394;42.692;23.314;2023-08-24T01:51:14;95142.38;;;22.87
24278;BMP280;12394;42.692;23.314;2023-08-24T01:53:41;95131.78;;;22.78
24278;BMP280;12394;42.692;23.314;2023-08-24T01:56:14;95134.91;;;22.76
24278;BMP280;12394;42.692;23.314;2023-08-24T01:58:40;95143.94;;;22.79
24278;BMP280;12394;42.692;23.314;2023-08-24T02:01:07;95145.59;;;22.76
24278;BMP280;12394;42.692;23.314;2023-08-24T02:03:32;95129.56;;;22.61
24278;BMP280;12394;42.692;23.314;2023-08-24T02:05:58;95138.84;;;22.66
24278;BMP280;12394;42.692;23.314;2023-08-24T02:08:23;95139.75;;;22.63
24278;BMP280;12394;42.692;23.314;2023-08-24T02:10:49;95137.81;;;22.63
24278;BMP280;12394;42.692;23.314;2023-08-24T02:13:14;95136.34;;;22.62
24278;BMP280;12394;42.692;23.314;2023-08-24T02:15:40;95143.06;;;22.58
24278;BMP280;12394;42.692;23.314;2023-08-24T02:18:06;95124.94;;;22.47
24278;BMP280;12394;42.692;23.314;2023-08-24T02:20:38;95134.50;;;22.54
24278;BMP280;12394;42.692;23.314;2023-08-24T02:23:04;95144.44;;;22.53
24278;BMP280;12394;42.692;23.314;2023-08-24T02:25:30;95144.91;;;22.52
24278;BMP280;12394;42.692;23.314;2023-08-24T02:27:56;95143.72;;;22.53
24278;BMP280;12394;42.692;23.314;2023-08-24T02:30:21;95142.44;;;22.48
24278;BMP280;12394;42.692;23.314;2023-08-24T02:32:47;95127.69;;;22.38
24278;BMP280;12394;42.692;23.314;2023-08-24T02:35:12;95144.50;;;22.44
24278;BMP280;12394;42.692;23.314;2023-08-24T02:37:38;95133.78;;;22.39
24278;BMP280;12394;42.692;23.314;2023-08-24T02:40:03;95133.59;;;22.42
24278;BMP280;12394;42.692;23.314;2023-08-24T02:42:34;95123.09;;;22.53
24278;BMP280;12394;42.692;23.314;2023-08-24T02:44:59;95127.72;;;22.53
24278;BMP280;12394;42.692;23.314;2023-08-24T02:47:24;95110.97;;;22.38
24278;BMP280;12394;42.692;23.314;2023-08-24T02:49:50;95121.81;;;22.49
24278;BMP280;12394;42.692;23.314;2023-08-24T02:52:17;95123.75;;;22.48
24278;BMP280;12394;42.692;23.314;2023-08-24T02:54:42;95123.19;;;22.44
24278;BMP280;12394;42.692;23.314;2023-08-24T02:57:08;95123.84;;;22.39
24278;BMP280;12394;42.692;23.314;2023-08-24T02:59:33;95127.88;;;22.35
24278;BMP280;12394;42.692;23.314;2023-08-24T03:01:59;95126.13;;;22.32
24278;BMP280;12394;42.692;23.314;2023-08-24T03:04:24;95130.25;;;22.33
24278;BMP280;12394;42.692;23.314;2023-08-24T03:06:49;95107.41;;;22.17
24278;BMP280;12394;42.692;23.314;2023-08-24T03:09:15;95126.59;;;22.30
24278;BMP280;12394;42.692;23.314;2023-08-24T03:11:41;95130.31;;;22.24
24278;BMP280;12394;42.692;23.314;2023-08-24T03:14:06;95135.78;;;22.29
24278;BMP280;12394;42.692;23.314;2023-08-24T03:16:32;95140.06;;;22.27
24278;BMP280;12394;42.692;23.314;2023-08-24T03:18:57;95137.41;;;22.27
24278;BMP280;12394;42.692;23.314;2023-08-24T03:21:23;95125.38;;;22.16
24278;BMP280;12394;42.692;23.314;2023-08-24T03:23:49;95143.38;;;22.22
24278;BMP280;12394;42.692;23.314;2023-08-24T03:26:14;95144.03;;;22.16
24278;BMP280;12394;42.692;23.314;2023-08-24T03:28:41;95137.53;;;22.08
24278;BMP280;12394;42.692;23.314;2023-08-24T03:31:07;95139.19;;;22.06
24278;BMP280;12394;42.692;23.314;2023-08-24T03:33:32;95149.69;;;22.09
24278;BMP280;12394;42.692;23.314;2023-08-24T03:36:00;95161.25;;;22.06
24278;BMP280;12394;42.692;23.314;2023-08-24T03:38:25;95162.28;;;22.09
24278;BMP280;12394;42.692;23.314;2023-08-24T03:40:51;95169.38;;;22.12
24278;BMP280;12394;42.692;23.314;2023-08-24T03:43:16;95177.44;;;22.17
24278;BMP280;12394;42.692;23.314;2023-08-24T03:45:42;95176.88;;;22.13
24278;BMP280;12394;42.692;23.314;2023-08-24T03:48:08;95185.00;;;22.19
24278;BMP280;12394;42.692;23.314;2023-08-24T03:50:33;95183.53;;;22.18
24278;BMP280;12394;42.692;23.314;2023-08-24T03:52:59;95189.59;;;22.18
24278;BMP280;12394;42.692;23.314;2023-08-24T03:55:24;95177.63;;;22.14
24278;BMP280;12394;42.692;23.314;2023-08-24T03:57:50;95182.16;;;22.23
24278;BMP280;12394;42.692;23.314;2023-08-24T04:00:16;95181.91;;;22.21
24278;BMP280;12394;42.692;23.314;2023-08-24T04:02:42;95168.91;;;22.13
24278;BMP280;12394;42.692;23.314;2023-08-24T04:05:08;95185.81;;;22.10
24278;BMP280;12394;42.692;23.314;2023-08-24T04:07:33;95179.56;;;22.13
24278;BMP280;12394;42.692;23.314;2023-08-24T04:10:02;95186.47;;;22.20
24278;BMP280;12394;42.692;23.314;2023-08-24T04:12:30;95182.78;;;22.17
24278;BMP280;12394;42.692;23.314;2023-08-24T04:14:56;95179.00;;;22.09
24278;BMP280;12394;42.692;23.314;2023-08-24T04:17:23;95179.78;;;22.01
24278;BMP280;12394;42.692;23.314;2023-08-24T04:19:48;95169.31;;;21.97
24278;BMP280;12394;42.692;23.314;2023-08-24T04:22:15;95173.16;;;21.96
24278;BMP280;12394;42.692;23.314;2023-08-24T04:24:40;95167.84;;;21.96
24278;BMP280;12394;42.692;23.314;2023-08-24T04:27:06;95181.09;;;22.05
24278;BMP280;12394;42.692;23.314;2023-08-24T04:29:31;95173.41;;;22.07
24278;BMP280;12394;42.692;23.314;2023-08-24T04:31:57;95187.84;;;22.15
24278;BMP280;12394;42.692;23.314;2023-08-24T04:34:22;95193.34;;;22.12
24278;BMP280;12394;42.692;23.314;2023-08-24T04:36:48;95185.50;;;22.08
24278;BMP280;12394;42.692;23.314;2023-08-24T04:39:13;95185.50;;;22.08
24278;BMP280;12394;42.692;23.314;2023-08-24T04:41:39;95184.16;;;22.13
24278;BMP280;12394;42.692;23.314;2023-08-24T04:44:04;95179.75;;;22.10
24278;BMP280;12394;42.692;23.314;2023-08-24T04:46:29;95179.84;;;22.15
24278;BMP280;12394;42.692;23.314;2023-08-24T04:48:55;95178.19;;;22.18
24278;BMP280;12394;42.692;23.314;2023-08-24T04:51:20;95175.94;;;22.26
24278;BMP280;12394;42.692;23.314;2023-08-24T04:53:46;95176.94;;;22.28
24278;BMP280;12394;42.692;23.314;2023-08-24T04:56:11;95179.53;;;22.37
24278;BMP280;12394;42.692;23.314;2023-08-24T04:58:37;95184.34;;;22.48
24278;BMP280;12394;42.692;23.314;2023-08-24T05:01:02;95183.44;;;22.51
24278;BMP280;12394;42.692;23.314;2023-08-24T05:03:27;95188.22;;;22.47
24278;BMP280;12394;42.692;23.314;2023-08-24T05:05:53;95189.31;;;22.55
24278;BMP280;12394;42.692;23.314;2023-08-24T05:08:18;95192.66;;;22.65
24278;BMP280;12394;42.692;23.314;2023-08-24T05:10:44;95147.91;;;22.45
24278;BMP280;12394;42.692;23.314;2023-08-24T05:13:09;95202.09;;;22.89
24278;BMP280;12394;42.692;23.314;2023-08-24T05:15:35;95199.88;;;23.02
24278;BMP280;12394;42.692;23.314;2023-08-24T05:18:00;95203.00;;;23.16
24278;BMP280;12394;42.692;23.314;2023-08-24T05:20:26;95207.72;;;23.21
24278;BMP280;12394;42.692;23.314;2023-08-24T05:22:52;95211.19;;;23.27
24278;BMP280;12394;42.692;23.314;2023-08-24T05:25:20;95207.97;;;23.37
24278;BMP280;12394;42.692;23.314;2023-08-24T05:27:46;95211.19;;;23.56
24278;BMP280;12394;42.692;23.314;2023-08-24T05:30:11;95211.72;;;23.60
24278;BMP280;12394;42.692;23.314;2023-08-24T05:32:37;95213.47;;;23.63
24278;BMP280;12394;42.692;23.314;2023-08-24T05:35:05;95215.88;;;23.61
24278;BMP280;12394;42.692;23.314;2023-08-24T05:37:30;95226.38;;;23.65
24278;BMP280;12394;42.692;23.314;2023-08-24T05:39:56;95223.84;;;23.76
24278;BMP280;12394;42.692;23.314;2023-08-24T05:42:21;95224.88;;;23.78
24278;BMP280;12394;42.692;23.314;2023-08-24T05:44:47;95215.66;;;23.79
24278;BMP280;12394;42.692;23.314;2023-08-24T05:47:12;95221.81;;;23.85
24278;BMP280;12394;42.692;23.314;2023-08-24T05:49:37;95220.75;;;23.98
24278;BMP280;12394;42.692;23.314;2023-08-24T05:52:03;95226.00;;;24.07
24278;BMP280;12394;42.692;23.314;2023-08-24T05:54:29;95230.00;;;24.17
24278;BMP280;12394;42.692;23.314;2023-08-24T05:56:54;95237.56;;;24.18
24278;BMP280;12394;42.692;23.314;2023-08-24T05:59:20;95232.31;;;24.24
24278;BMP280;12394;42.692;23.314;2023-08-24T06:01:45;95232.44;;;24.35
24278;BMP280;12394;42.692;23.314;2023-08-24T06:04:11;95220.59;;;24.42
24278;BMP280;12394;42.692;23.314;2023-08-24T06:06:36;95230.19;;;24.74
24278;BMP280;12394;42.692;23.314;2023-08-24T06:09:03;95234.59;;;24.97
24278;BMP280;12394;42.692;23.314;2023-08-24T06:11:34;95231.38;;;25.19
24278;BMP280;12394;42.692;23.314;2023-08-24T06:14:01;95229.41;;;25.45
24278;BMP280;12394;42.692;23.314;2023-08-24T06:16:28;95227.47;;;25.77
24278;BMP280;12394;42.692;23.314;2023-08-24T06:18:53;95232.72;;;26.03
24278;BMP280;12394;42.692;23.314;2023-08-24T06:21:19;95228.00;;;26.24
24278;BMP280;12394;42.692;23.314;2023-08-24T06:23:44;95232.44;;;26.38
24278;BMP280;12394;42.692;23.314;2023-08-24T06:26:12;95222.47;;;26.49
24278;BMP280;12394;42.692;23.314;2023-08-24T06:28:37;95231.84;;;26.71
24278;BMP280;12394;42.692;23.314;2023-08-24T06:31:03;95225.97;;;26.72
24278;BMP280;12394;42.692;23.314;2023-08-24T06:33:32;95233.78;;;26.76
24278;BMP280;12394;42.692;23.314;2023-08-24T06:35:58;95218.75;;;27.39
24278;BMP280;12394;42.692;23.314;2023-08-24T06:38:25;95232.41;;;27.97
24278;BMP280;12394;42.692;23.314;2023-08-24T06:40:50;95216.72;;;28.12
24278;BMP280;12394;42.692;23.314;2023-08-24T06:43:16;95237.97;;;28.33
24278;BMP280;12394;42.692;23.314;2023-08-24T06:45:41;95236.84;;;28.75
24278;BMP280;12394;42.692;23.314;2023-08-24T06:48:07;95243.72;;;29.11
24278;BMP280;12394;42.692;23.314;2023-08-24T06:50:34;95238.25;;;29.22
24278;BMP280;12394;42.692;23.314;2023-08-24T06:53:02;95204.06;;;28.59
24278;BMP280;12394;42.692;23.314;2023-08-24T06:55:29;95234.34;;;28.82
24278;BMP280;12394;42.692;23.314;2023-08-24T06:57:54;95200.44;;;28.57
24278;BMP280;12394;42.692;23.314;2023-08-24T07:00:20;95221.66;;;29.12
24278;BMP280;12394;42.692;23.314;2023-08-24T07:02:46;95228.66;;;28.91
24278;BMP280;12394;42.692;23.314;2023-08-24T07:05:12;95228.84;;;28.99
24278;BMP280;12394;42.692;23.314;2023-08-24T07:07:38;95224.28;;;29.24
24278;BMP280;12394;42.692;23.314;2023-08-24T07:10:04;95221.34;;;28.86
24278;BMP280;12394;42.692;23.314;2023-08-24T07:12:29;95213.03;;;28.84
24278;BMP280;12394;42.692;23.314;2023-08-24T07:14:55;95226.09;;;29.45
24278;BMP280;12394;42.692;23.314;2023-08-24T07:17:20;95215.00;;;30.27
24278;BMP280;12394;42.692;23.314;2023-08-24T07:19:46;95218.94;;;30.51
24278;BMP280;12394;42.692;23.314;2023-08-24T07:22:11;95213.66;;;30.96
24278;BMP280;12394;42.692;23.314;2023-08-24T07:24:36;95221.75;;;31.91
24278;BMP280;12394;42.692;23.314;2023-08-24T07:27:02;95217.53;;;32.82
24278;BMP280;12394;42.692;23.314;2023-08-24T07:29:29;95215.88;;;33.55
24278;BMP280;12394;42.692;23.314;2023-08-24T07:31:54;95217.44;;;33.91
24278;BMP280;12394;42.692;23.314;2023-08-24T07:34:19;95212.06;;;33.99
24278;BMP280;12394;42.692;23.314;2023-08-24T07:36:47;95218.31;;;34.51
24278;BMP280;12394;42.692;23.314;2023-08-24T07:39:14;95205.22;;;34.85
24278;BMP280;12394;42.692;23.314;2023-08-24T07:41:43;95213.44;;;35.00
24278;BMP280;12394;42.692;23.314;2023-08-24T07:44:09;95208.78;;;35.23
24278;BMP280;12394;42.692;23.314;2023-08-24T07:46:34;95214.75;;;35.90
24278;BMP280;12394;42.692;23.314;2023-08-24T07:49:00;95210.22;;;36.00
24278;BMP280;12394;42.692;23.314;2023-08-24T07:51:25;95208.69;;;36.30
24278;BMP280;12394;42.692;23.314;2023-08-24T07:53:52;95204.47;;;36.91
24278;BMP280;12394;42.692;23.314;2023-08-24T07:56:18;95204.63;;;37.26
24278;BMP280;12394;42.692;23.314;2023-08-24T07:58:44;95187.44;;;37.16
24278;BMP280;12394;42.692;23.314;2023-08-24T08:01:09;95188.91;;;38.18
24278;BMP280;12394;42.692;23.314;2023-08-24T08:03:35;95184.97;;;38.11
24278;BMP280;12394;42.692;23.314;2023-08-24T08:06:01;95209.66;;;38.55
24278;BMP280;12394;42.692;23.314;2023-08-24T08:08:27;95193.69;;;39.05
24278;BMP280;12394;42.692;23.314;2023-08-24T08:11:02;95196.97;;;39.77
24278;BMP280;12394;42.692;23.314;2023-08-24T08:13:28;95198.31;;;40.05
24278;BMP280;12394;42.692;23.314;2023-08-24T08:16:03;95199.47;;;40.30
24278;BMP280;12394;42.692;23.314;2023-08-24T08:18:29;95202.91;;;40.79
24278;BMP280;12394;42.692;23.314;2023-08-24T08:20:55;95188.09;;;41.13
24278;BMP280;12394;42.692;23.314;2023-08-24T08:23:20;95184.63;;;41.74
24278;BMP280;12394;42.692;23.314;2023-08-24T08:25:45;95191.97;;;42.56
24278;BMP280;12394;42.692;23.314;2023-08-24T08:28:11;95194.63;;;43.11
24278;BMP280;12394;42.692;23.314;2023-08-24T08:30:36;95180.72;;;43.09
24278;BMP280;12394;42.692;23.314;2023-08-24T08:33:02;95187.75;;;43.00
24278;BMP280;12394;42.692;23.314;2023-08-24T08:35:27;95179.56;;;44.57
24278;BMP280;12394;42.692;23.314;2023-08-24T08:37:53;95180.66;;;44.52
24278;BMP280;12394;42.692;23.314;2023-08-24T08:40:19;95182.19;;;44.05
24278;BMP280;12394;42.692;23.314;2023-08-24T08:42:44;95178.63;;;45.17
24278;BMP280;12394;42.692;23.314;2023-08-24T08:45:11;95136.16;;;45.24
24278;BMP280;12394;42.692;23.314;2023-08-24T08:47:37;95133.28;;;45.22
24278;BMP280;12394;42.692;23.314;2023-08-24T08:50:03;95164.72;;;46.56
24278;BMP280;12394;42.692;23.314;2023-08-24T08:52:31;95144.72;;;47.36
24278;BMP280;12394;42.692;23.314;2023-08-24T08:54:57;95140.50;;;46.72
24278;BMP280;12394;42.692;23.314;2023-08-24T08:57:24;95154.09;;;46.36
24278;BMP280;12394;42.692;23.314;2023-08-24T08:59:51;95155.44;;;46.80
24278;BMP280;12394;42.692;23.314;2023-08-24T09:02:19;95148.63;;;47.80
24278;BMP280;12394;42.692;23.314;2023-08-24T09:04:45;95133.78;;;48.06
24278;BMP280;12394;42.692;23.314;2023-08-24T09:07:13;95139.34;;;48.79
24278;BMP280;12394;42.692;23.314;2023-08-24T09:09:39;95136.44;;;49.74
24278;BMP280;12394;42.692;23.314;2023-08-24T09:12:07;95132.06;;;49.91
24278;BMP280;12394;42.692;23.314;2023-08-24T09:14:33;95124.94;;;49.64
24278;BMP280;12394;42.692;23.314;2023-08-24T09:16:59;95112.72;;;49.73
24278;BMP280;12394;42.692;23.314;2023-08-24T09:19:28;95108.72;;;51.19
24278;BMP280;12394;42.692;23.314;2023-08-24T09:22:00;95112.31;;;50.97
24278;BMP280;12394;42.692;23.314;2023-08-24T09:24:32;95112.44;;;51.27
24278;BMP280;12394;42.692;23.314;2023-08-24T09:26:58;95112.50;;;51.57
24278;BMP280;12394;42.692;23.314;2023-08-24T09:29:24;95104.94;;;51.89
24278;BMP280;12394;42.692;23.314;2023-08-24T09:31:50;95103.00;;;52.92
24278;BMP280;12394;42.692;23.314;2023-08-24T09:34:20;95083.25;;;53.59
24278;BMP280;12394;42.692;23.314;2023-08-24T09:36:46;95084.38;;;54.88
24278;BMP280;12394;42.692;23.314;2023-08-24T09:39:11;95075.56;;;55.16
24278;BMP280;12394;42.692;23.314;2023-08-24T09:41:44;95069.25;;;54.03
24278;BMP280;12394;42.692;23.314;2023-08-24T09:44:10;95072.91;;;53.28
24278;BMP280;12394;42.692;23.314;2023-08-24T09:46:37;95075.44;;;53.96
24278;BMP280;12394;42.692;23.314;2023-08-24T09:49:05;95068.16;;;52.63
24278;BMP280;12394;42.692;23.314;2023-08-24T09:51:33;95068.94;;;53.03
24278;BMP280;12394;42.692;23.314;2023-08-24T09:54:03;95063.69;;;52.83
24278;BMP280;12394;42.692;23.314;2023-08-24T09:56:33;95048.59;;;54.29
24278;BMP280;12394;42.692;23.314;2023-08-24T09:59:00;95067.34;;;52.92
24278;BMP280;12394;42.692;23.314;2023-08-24T10:01:29;95041.50;;;51.92
24278;BMP280;12394;42.692;23.314;2023-08-24T10:03:56;95045.50;;;50.76
24278;BMP280;12394;42.692;23.314;2023-08-24T10:06:23;95053.59;;;50.65
24278;BMP280;12394;42.692;23.314;2023-08-24T10:08:55;95039.31;;;51.05
24278;BMP280;12394;42.692;23.314;2023-08-24T10:11:28;95042.31;;;50.61
24278;BMP280;12394;42.692;23.314;2023-08-24T10:14:12;95039.75;;;51.21
24278;BMP280;12394;42.692;23.314;2023-08-24T10:16:39;95034.53;;;51.35
24278;BMP280;12394;42.692;23.314;2023-08-24T10:19:07;95038.50;;;52.48
24278;BMP280;12394;42.692;23.314;2023-08-24T10:21:33;95041.28;;;52.48
24278;BMP280;12394;42.692;23.314;2023-08-24T10:24:01;95044.66;;;51.78
24278;BMP280;12394;42.692;23.314;2023-08-24T10:26:27;95034.63;;;50.86
24278;BMP280;12394;42.692;23.314;2023-08-24T10:28:53;95039.13;;;50.23
24278;BMP280;12394;42.692;23.314;2023-08-24T10:31:19;95036.03;;;49.46
24278;BMP280;12394;42.692;23.314;2023-08-24T10:33:48;95023.19;;;48.76
24278;BMP280;12394;42.692;23.314;2023-08-24T10:36:14;95022.25;;;47.41
24278;BMP280;12394;42.692;23.314;2023-08-24T10:38:41;95025.50;;;46.39
24278;BMP280;12394;42.692;23.314;2023-08-24T10:41:10;95015.00;;;44.78
24278;BMP280;12394;42.692;23.314;2023-08-24T10:43:40;95027.38;;;43.99
24278;BMP280;12394;42.692;23.314;2023-08-24T10:46:13;95019.03;;;42.53
24278;BMP280;12394;42.692;23.314;2023-08-24T10:53:53;95036.28;;;39.52
24278;BMP280;12394;42.692;23.314;2023-08-24T10:56:20;95041.44;;;38.74
24278;BMP280;12394;42.692;23.314;2023-08-24T10:58:47;95035.00;;;37.47
24278;BMP280;12394;42.692;23.314;2023-08-24T11:01:19;94986.66;;;36.31
24278;BMP280;12394;42.692;23.314;2023-08-24T11:03:51;95032.38;;;36.07
24278;BMP280;12394;42.692;23.314;2023-08-24T11:06:21;95012.22;;;35.63
24278;BMP280;12394;42.692;23.314;2023-08-24T11:08:48;95026.66;;;35.25
24278;BMP280;12394;42.692;23.314;2023-08-24T11:11:21;95020.50;;;34.87
24278;BMP280;12394;42.692;23.314;2023-08-24T11:16:46;95016.00;;;34.74
24278;BMP280;12394;42.692;23.314;2023-08-24T11:19:12;95019.59;;;34.85
24278;BMP280;12394;42.692;23.314;2023-08-24T11:21:44;95017.25;;;34.96
24278;BMP280;12394;42.692;23.314;2023-08-24T11:24:12;95016.88;;;34.77
24278;BMP280;12394;42.692;23.314;2023-08-24T11:26:47;95011.47;;;34.69
24278;BMP280;12394;42.692;23.314;2023-08-24T11:29:13;95011.59;;;34.33
24278;BMP280;12394;42.692;23.314;2023-08-24T11:31:41;95017.91;;;34.28
24278;BMP280;12394;42.692;23.314;2023-08-24T11:34:07;95025.81;;;34.11
24278;BMP280;12394;42.692;23.314;2023-08-24T11:36:46;95026.13;;;33.92
24278;BMP280;12394;42.692;23.314;2023-08-24T11:39:17;95031.47;;;33.70
24278;BMP280;12394;42.692;23.314;2023-08-24T11:41:43;95039.84;;;33.51
24278;BMP280;12394;42.692;23.314;2023-08-24T11:44:10;95041.34;;;33.31
24278;BMP280;12394;42.692;23.314;2023-08-24T11:46:36;95035.38;;;33.04
24278;BMP280;12394;42.692;23.314;2023-08-24T11:49:05;95018.41;;;32.83
24278;BMP280;12394;42.692;23.314;2023-08-24T11:51:30;95026.63;;;32.70
24278;BMP280;12394;42.692;23.314;2023-08-24T11:53:59;95022.13;;;32.52
24278;BMP280;12394;42.692;23.314;2023-08-24T11:56:24;95024.56;;;32.42
24278;BMP280;12394;42.692;23.314;2023-08-24T11:58:50;95013.09;;;32.15
24278;BMP280;12394;42.692;23.314;2023-08-24T12:01:18;95022.78;;;32.11
24278;BMP280;12394;42.692;23.314;2023-08-24T12:03:44;95012.78;;;32.06
24278;BMP280;12394;42.692;23.314;2023-08-24T12:06:16;95008.22;;;32.01
24278;BMP280;12394;42.692;23.314;2023-08-24T12:08:44;95006.28;;;31.88
24278;BMP280;12394;42.692;23.314;2023-08-24T12:11:20;95008.81;;;31.73
24278;BMP280;12394;42.692;23.314;2023-08-24T12:13:50;95002.69;;;31.46
24278;BMP280;12394;42.692;23.314;2023-08-24T12:16:19;94996.03;;;31.34
24278;BMP280;12394;42.692;23.314;2023-08-24T12:18:56;94966.09;;;31.32
24278;BMP280;12394;42.692;23.314;2023-08-24T12:21:25;94991.47;;;31.29
24278;BMP280;12394;42.692;23.314;2023-08-24T12:23:59;94978.13;;;30.91
24278;BMP280;12394;42.692;23.314;2023-08-24T12:26:27;94994.19;;;31.16
24278;BMP280;12394;42.692;23.314;2023-08-24T12:28:53;94985.13;;;31.13
24278;BMP280;12394;42.692;23.314;2023-08-24T12:31:19;94994.47;;;31.12
24278;BMP280;12394;42.692;23.314;2023-08-24T12:33:45;94994.97;;;30.98
24278;BMP280;12394;42.692;23.314;2023-08-24T12:36:11;94994.00;;;30.82
24278;BMP280;12394;42.692;23.314;2023-08-24T12:38:37;95000.56;;;31.00
24278;BMP280;12394;42.692;23.314;2023-08-24T12:41:03;95004.13;;;31.21
24278;BMP280;12394;42.692;23.314;2023-08-24T12:43:28;95004.34;;;31.36
24278;BMP280;12394;42.692;23.314;2023-08-24T12:45:54;95005.78;;;31.50
24278;BMP280;12394;42.692;23.314;2023-08-24T12:48:19;95008.00;;;31.65
24278;BMP280;12394;42.692;23.314;2023-08-24T12:50:46;95007.03;;;31.75
24278;BMP280;12394;42.692;23.314;2023-08-24T12:53:12;95015.06;;;31.68
24278;BMP280;12394;42.692;23.314;2023-08-24T12:55:39;95008.69;;;31.78
24278;BMP280;12394;42.692;23.314;2023-08-24T12:58:05;95019.09;;;31.88
24278;BMP280;12394;42.692;23.314;2023-08-24T13:00:31;95028.56;;;31.81
24278;BMP280;12394;42.692;23.314;2023-08-24T13:02:57;95018.81;;;31.65
24278;BMP280;12394;42.692;23.314;2023-08-24T13:05:22;95029.09;;;31.53
24278;BMP280;12394;42.692;23.314;2023-08-24T13:07:48;95030.13;;;31.50
24278;BMP280;12394;42.692;23.314;2023-08-24T13:10:14;95020.25;;;31.40
24278;BMP280;12394;42.692;23.314;2023-08-24T13:12:39;95022.66;;;31.30
24278;BMP280;12394;42.692;23.314;2023-08-24T13:15:05;95038.78;;;31.22
24278;BMP280;12394;42.692;23.314;2023-08-24T13:17:31;95032.94;;;31.18
24278;BMP280;12394;42.692;23.314;2023-08-24T13:19:57;95019.84;;;31.22
24278;BMP280;12394;42.692;23.314;2023-08-24T13:22:22;95025.06;;;31.33
24278;BMP280;12394;42.692;23.314;2023-08-24T13:24:48;95022.84;;;31.45
24278;BMP280;12394;42.692;23.314;2023-08-24T13:27:14;95022.03;;;31.63
24278;BMP280;12394;42.692;23.314;2023-08-24T13:29:42;95024.50;;;31.88
24278;BMP280;12394;42.692;23.314;2023-08-24T13:32:08;95009.03;;;31.75
24278;BMP280;12394;42.692;23.314;2023-08-24T13:34:33;95026.66;;;31.89
24278;BMP280;12394;42.692;23.314;2023-08-24T13:36:59;95027.50;;;31.97
24278;BMP280;12394;42.692;23.314;2023-08-24T13:39:25;95021.53;;;32.12
24278;BMP280;12394;42.692;23.314;2023-08-24T13:41:53;95016.75;;;32.05
24278;BMP280;12394;42.692;23.314;2023-08-24T13:44:19;95003.53;;;32.01
24278;BMP280;12394;42.692;23.314;2023-08-24T13:46:44;95027.25;;;32.08
24278;BMP280;12394;42.692;23.314;2023-08-24T13:49:10;95021.53;;;31.99
24278;BMP280;12394;42.692;23.314;2023-08-24T13:51:35;95037.78;;;31.99
24278;BMP280;12394;42.692;23.314;2023-08-24T13:54:00;95042.91;;;31.89
24278;BMP280;12394;42.692;23.314;2023-08-24T13:56:26;95047.00;;;31.83
24278;BMP280;12394;42.692;23.314;2023-08-24T13:58:51;95032.41;;;31.86
24278;BMP280;12394;42.692;23.314;2023-08-24T14:01:18;95050.19;;;31.94